sensor_id;sensor_type;location;lat;lon;timestamp;temperature;humidity
42885;DHT22;28534;48.100;11.584;2024-02-28T00:00:14;22.20;89.60
42885;DHT22;28534;48.100;11.584;2024-02-28T00:01:15;22.20;89.00
42885;DHT22;28534;48.100;11.584;2024-02-28T00:02:16;22.30;89.30
42885;DHT22;28534;48.100;11.584;2024-02-28T00:03:17;22.40;89.20
42885;DHT22;28534;48.100;11.584;2024-02-28T00:04:19;22.50;89.50
42885;DHT22;28534;48.100;11.584;2024-02-28T00:05:19;22.40;89.00
42885;DHT22;28534;48.100;11.584;2024-02-28T00:06:21;22.30;88.50
42885;DHT22;28534;48.100;11.584;2024-02-28T00:07:21;22.30;88.80
42885;DHT22;28534;48.100;11.584;2024-02-28T00:08:22;22.30;88.90
42885;DHT22;28534;48.100;11.584;2024-02-28T00:09:24;22.30;88.70
42885;DHT22;28534;48.100;11.584;2024-02-28T00:10:25;22.40;88.80
42885;DHT22;28534;48.100;11.584;2024-02-28T00:11:27;22.40;88.80
42885;DHT22;28534;48.100;11.584;2024-02-28T00:12:28;22.30;88.80
42885;DHT22;28534;48.100;11.584;2024-02-28T00:13:29;22.30;88.60
42885;DHT22;28534;48.100;11.584;2024-02-28T00:14:30;22.40;88.90
42885;DHT22;28534;48.100;11.584;2024-02-28T00:15:31;22.40;88.60
42885;DHT22;28534;48.100;11.584;2024-02-28T00:16:32;22.20;88.70
42885;DHT22;28534;48.100;11.584;2024-02-28T00:17:34;22.30;88.10
42885;DHT22;28534;48.100;11.584;2024-02-28T00:18:35;22.30;88.40
42885;DHT22;28534;48.100;11.584;2024-02-28T00:19:36;22.30;88.40
42885;DHT22;28534;48.100;11.584;2024-02-28T00:20:37;22.30;88.60
42885;DHT22;28534;48.100;11.584;2024-02-28T00:21:38;22.20;88.50
42885;DHT22;28534;48.100;11.584;2024-02-28T00:22:40;22.40;88.40
42885;DHT22;28534;48.100;11.584;2024-02-28T00:23:42;22.40;88.60
42885;DHT22;28534;48.100;11.584;2024-02-28T00:24:44;22.20;88.70
42885;DHT22;28534;48.100;11.584;2024-02-28T00:25:45;22.40;89.20
42885;DHT22;28534;48.100;11.584;2024-02-28T00:26:47;22.30;89.00
42885;DHT22;28534;48.100;11.584;2024-02-28T00:27:48;22.40;89.10
42885;DHT22;28534;48.100;11.584;2024-02-28T00:28:50;22.40;89.20
42885;DHT22;28534;48.100;11.584;2024-02-28T00:29:50;22.30;89.00
42885;DHT22;28534;48.100;11.584;2024-02-28T00:30:51;22.20;89.00
42885;DHT22;28534;48.100;11.584;2024-02-28T00:31:52;22.20;88.70
42885;DHT22;28534;48.100;11.584;2024-02-28T00:32:53;22.20;88.90
42885;DHT22;28534;48.100;11.584;2024-02-28T00:33:55;22.30;89.00
42885;DHT22;28534;48.100;11.584;2024-02-28T00:34:56;22.40;89.10
42885;DHT22;28534;48.100;11.584;2024-02-28T00:35:57;22.40;89.10
42885;DHT22;28534;48.100;11.584;2024-02-28T00:36:58;22.40;89.30
42885;DHT22;28534;48.100;11.584;2024-02-28T00:37:59;22.30;89.40
42885;DHT22;28534;48.100;11.584;2024-02-28T00:39:00;22.20;89.30
42885;DHT22;28534;48.100;11.584;2024-02-28T00:40:02;22.40;89.20
42885;DHT22;28534;48.100;11.584;2024-02-28T00:41:03;22.20;89.10
42885;DHT22;28534;48.100;11.584;2024-02-28T00:42:06;22.30;88.70
42885;DHT22;28534;48.100;11.584;2024-02-28T00:43:06;22.40;89.00
42885;DHT22;28534;48.100;11.584;2024-02-28T00:44:08;22.40;89.40
42885;DHT22;28534;48.100;11.584;2024-02-28T00:45:09;22.30;89.30
42885;DHT22;28534;48.100;11.584;2024-02-28T00:46:11;22.40;89.20
42885;DHT22;28534;48.100;11.584;2024-02-28T00:47:12;22.40;89.50
42885;DHT22;28534;48.100;11.584;2024-02-28T00:48:14;22.40;89.60
42885;DHT22;28534;48.100;11.584;2024-02-28T00:49:14;22.30;89.60
42885;DHT22;28534;48.100;11.584;2024-02-28T00:50:16;22.50;89.70
42885;DHT22;28534;48.100;11.584;2024-02-28T00:51:16;22.20;89.40
42885;DHT22;28534;48.100;11.584;2024-02-28T00:52:17;22.20;89.30
42885;DHT22;28534;48.100;11.584;2024-02-28T00:53:19;22.20;89.60
42885;DHT22;28534;48.100;11.584;2024-02-28T00:54:20;22.40;89.80
42885;DHT22;28534;48.100;11.584;2024-02-28T00:55:24;22.30;89.60
42885;DHT22;28534;48.100;11.584;2024-02-28T00:56:24;22.40;89.40
42885;DHT22;28534;48.100;11.584;2024-02-28T00:57:28;22.40;89.70
42885;DHT22;28534;48.100;11.584;2024-02-28T00:58:29;22.20;89.60
42885;DHT22;28534;48.100;11.584;2024-02-28T00:59:31;22.30;89.60
42885;DHT22;28534;48.100;11.584;2024-02-28T01:00:31;22.30;89.70
42885;DHT22;28534;48.100;11.584;2024-02-28T01:01:33;22.40;89.90
42885;DHT22;28534;48.100;11.584;2024-02-28T01:02:33;22.20;90.00
42885;DHT22;28534;48.100;11.584;2024-02-28T01:03:35;22.00;89.70
42885;DHT22;28534;48.100;11.584;2024-02-28T01:04:36;22.10;89.70
42885;DHT22;28534;48.100;11.584;2024-02-28T01:05:36;22.20;90.00
42885;DHT22;28534;48.100;11.584;2024-02-28T01:06:38;22.10;90.00
42885;DHT22;28534;48.100;11.584;2024-02-28T01:07:39;22.10;90.10
42885;DHT22;28534;48.100;11.584;2024-02-28T01:08:40;22.00;90.00
42885;DHT22;28534;48.100;11.584;2024-02-28T01:09:41;22.30;90.00
42885;DHT22;28534;48.100;11.584;2024-02-28T01:10:42;22.20;90.10
42885;DHT22;28534;48.100;11.584;2024-02-28T01:11:43;22.20;90.10
42885;DHT22;28534;48.100;11.584;2024-02-28T01:12:46;22.30;90.20
42885;DHT22;28534;48.100;11.584;2024-02-28T01:13:47;22.10;90.20
42885;DHT22;28534;48.100;11.584;2024-02-28T01:14:48;22.20;90.10
42885;DHT22;28534;48.100;11.584;2024-02-28T01:15:49;22.30;90.10
42885;DHT22;28534;48.100;11.584;2024-02-28T01:16:50;22.10;89.90
42885;DHT22;28534;48.100;11.584;2024-02-28T01:17:51;22.30;90.10
42885;DHT22;28534;48.100;11.584;2024-02-28T01:18:52;22.30;90.00
42885;DHT22;28534;48.100;11.584;2024-02-28T01:19:52;22.30;90.10
42885;DHT22;28534;48.100;11.584;2024-02-28T01:20:54;22.20;90.00
42885;DHT22;28534;48.100;11.584;2024-02-28T01:21:54;22.20;90.00
42885;DHT22;28534;48.100;11.584;2024-02-28T01:22:56;22.10;90.00
42885;DHT22;28534;48.100;11.584;2024-02-28T01:23:57;22.30;89.90
42885;DHT22;28534;48.100;11.584;2024-02-28T01:24:58;22.20;89.90
42885;DHT22;28534;48.100;11.584;2024-02-28T01:25:59;22.40;90.20
42885;DHT22;28534;48.100;11.584;2024-02-28T01:27:03;22.30;90.10
42885;DHT22;28534;48.100;11.584;2024-02-28T01:28:05;22.10;90.10
42885;DHT22;28534;48.100;11.584;2024-02-28T01:29:07;22.00;89.70
42885;DHT22;28534;48.100;11.584;2024-02-28T01:30:07;22.20;90.00
42885;DHT22;28534;48.100;11.584;2024-02-28T01:31:09;22.20;89.80
42885;DHT22;28534;48.100;11.584;2024-02-28T01:32:10;22.00;89.90
42885;DHT22;28534;48.100;11.584;2024-02-28T01:33:11;22.40;90.10
42885;DHT22;28534;48.100;11.584;2024-02-28T01:34:13;22.30;90.00
42885;DHT22;28534;48.100;11.584;2024-02-28T01:35:13;22.30;90.00
42885;DHT22;28534;48.100;11.584;2024-02-28T01:36:15;22.10;89.90
42885;DHT22;28534;48.100;11.584;2024-02-28T01:37:15;22.20;90.00
42885;DHT22;28534;48.100;11.584;2024-02-28T01:38:17;22.30;90.00
42885;DHT22;28534;48.100;11.584;2024-02-28T01:39:18;22.20;90.00
42885;DHT22;28534;48.100;11.584;2024-02-28T01:40:20;22.30;90.00
42885;DHT22;28534;48.100;11.584;2024-02-28T01:41:21;22.20;90.00
42885;DHT22;28534;48.100;11.584;2024-02-28T01:42:23;22.30;90.10
42885;DHT22;28534;48.100;11.584;2024-02-28T01:43:25;22.40;90.00
42885;DHT22;28534;48.100;11.584;2024-02-28T01:44:26;22.20;89.90
42885;DHT22;28534;48.100;11.584;2024-02-28T01:45:28;22.40;89.90
42885;DHT22;28534;48.100;11.584;2024-02-28T01:46:29;22.20;89.90
42885;DHT22;28534;48.100;11.584;2024-02-28T01:47:31;22.20;89.90
42885;DHT22;28534;48.100;11.584;2024-02-28T01:48:32;22.20;89.90
42885;DHT22;28534;48.100;11.584;2024-02-28T01:49:32;22.40;90.00
42885;DHT22;28534;48.100;11.584;2024-02-28T01:50:34;22.30;90.00
42885;DHT22;28534;48.100;11.584;2024-02-28T01:51:35;22.20;89.60
42885;DHT22;28534;48.100;11.584;2024-02-28T01:52:37;22.40;89.90
42885;DHT22;28534;48.100;11.584;2024-02-28T01:53:38;22.40;89.60
42885;DHT22;28534;48.100;11.584;2024-02-28T01:54:40;22.40;89.50
42885;DHT22;28534;48.100;11.584;2024-02-28T01:55:42;22.30;89.80
42885;DHT22;28534;48.100;11.584;2024-02-28T01:56:43;22.40;89.80
42885;DHT22;28534;48.100;11.584;2024-02-28T01:57:44;22.40;89.90
42885;DHT22;28534;48.100;11.584;2024-02-28T01:58:47;22.40;89.90
42885;DHT22;28534;48.100;11.584;2024-02-28T01:59:48;22.30;90.10
42885;DHT22;28534;48.100;11.584;2024-02-28T02:00:50;22.30;90.00
42885;DHT22;28534;48.100;11.584;2024-02-28T02:01:50;22.40;90.10
42885;DHT22;28534;48.100;11.584;2024-02-28T02:02:52;22.40;89.90
42885;DHT22;28534;48.100;11.584;2024-02-28T02:03:53;22.30;90.10
42885;DHT22;28534;48.100;11.584;2024-02-28T02:04:54;22.30;90.00
42885;DHT22;28534;48.100;11.584;2024-02-28T02:05:58;22.10;89.90
42885;DHT22;28534;48.100;11.584;2024-02-28T02:06:58;21.90;90.00
42885;DHT22;28534;48.100;11.584;2024-02-28T02:08:00;22.20;90.10
42885;DHT22;28534;48.100;11.584;2024-02-28T02:09:01;22.30;90.10
42885;DHT22;28534;48.100;11.584;2024-02-28T02:10:03;22.40;90.00
42885;DHT22;28534;48.100;11.584;2024-02-28T02:11:08;22.20;89.60
42885;DHT22;28534;48.100;11.584;2024-02-28T02:12:09;22.40;90.00
42885;DHT22;28534;48.100;11.584;2024-02-28T02:13:10;22.30;90.00
42885;DHT22;28534;48.100;11.584;2024-02-28T02:14:13;22.40;89.90
42885;DHT22;28534;48.100;11.584;2024-02-28T02:15:14;22.40;89.80
42885;DHT22;28534;48.100;11.584;2024-02-28T02:16:15;22.30;89.90
42885;DHT22;28534;48.100;11.584;2024-02-28T02:17:16;22.30;89.90
42885;DHT22;28534;48.100;11.584;2024-02-28T02:18:17;22.20;89.70
42885;DHT22;28534;48.100;11.584;2024-02-28T02:19:20;22.20;89.00
42885;DHT22;28534;48.100;11.584;2024-02-28T02:20:22;22.40;90.10
42885;DHT22;28534;48.100;11.584;2024-02-28T02:21:26;22.40;90.10
42885;DHT22;28534;48.100;11.584;2024-02-28T02:22:33;22.40;90.00
42885;DHT22;28534;48.100;11.584;2024-02-28T02:23:33;22.20;90.00
42885;DHT22;28534;48.100;11.584;2024-02-28T02:24:35;22.20;89.90
42885;DHT22;28534;48.100;11.584;2024-02-28T02:25:42;22.20;90.00
42885;DHT22;28534;48.100;11.584;2024-02-28T02:26:43;22.20;90.00
42885;DHT22;28534;48.100;11.584;2024-02-28T02:27:46;22.20;89.90
42885;DHT22;28534;48.100;11.584;2024-02-28T02:28:47;22.30;90.00
42885;DHT22;28534;48.100;11.584;2024-02-28T02:29:49;22.40;90.00
42885;DHT22;28534;48.100;11.584;2024-02-28T02:30:49;22.60;90.00
42885;DHT22;28534;48.100;11.584;2024-02-28T02:31:51;22.20;89.40
42885;DHT22;28534;48.100;11.584;2024-02-28T02:32:51;22.20;89.70
42885;DHT22;28534;48.100;11.584;2024-02-28T02:33:53;22.40;90.00
42885;DHT22;28534;48.100;11.584;2024-02-28T02:34:55;22.40;90.00
42885;DHT22;28534;48.100;11.584;2024-02-28T02:35:58;22.50;90.10
42885;DHT22;28534;48.100;11.584;2024-02-28T02:36:58;22.30;89.80
42885;DHT22;28534;48.100;11.584;2024-02-28T02:38:01;22.30;90.10
42885;DHT22;28534;48.100;11.584;2024-02-28T02:39:02;22.30;90.10
42885;DHT22;28534;48.100;11.584;2024-02-28T02:40:03;22.30;90.10
42885;DHT22;28534;48.100;11.584;2024-02-28T02:41:05;22.20;89.60
42885;DHT22;28534;48.100;11.584;2024-02-28T02:42:05;22.30;90.00
42885;DHT22;28534;48.100;11.584;2024-02-28T02:43:06;22.20;89.30
42885;DHT22;28534;48.100;11.584;2024-02-28T02:44:08;22.30;90.00
42885;DHT22;28534;48.100;11.584;2024-02-28T02:45:09;22.30;90.00
42885;DHT22;28534;48.100;11.584;2024-02-28T02:46:10;22.20;88.70
42885;DHT22;28534;48.100;11.584;2024-02-28T02:47:11;22.20;89.90
42885;DHT22;28534;48.100;11.584;2024-02-28T02:48:12;22.00;89.70
42885;DHT22;28534;48.100;11.584;2024-02-28T02:49:13;22.20;90.10
42885;DHT22;28534;48.100;11.584;2024-02-28T02:50:15;22.20;89.60
42885;DHT22;28534;48.100;11.584;2024-02-28T02:51:15;22.30;90.00
42885;DHT22;28534;48.100;11.584;2024-02-28T02:52:19;22.30;90.00
42885;DHT22;28534;48.100;11.584;2024-02-28T02:53:21;22.30;89.40
42885;DHT22;28534;48.100;11.584;2024-02-28T02:54:21;22.40;89.50
42885;DHT22;28534;48.100;11.584;2024-02-28T02:55:23;22.40;89.30
42885;DHT22;28534;48.100;11.584;2024-02-28T02:56:23;22.30;89.60
42885;DHT22;28534;48.100;11.584;2024-02-28T02:57:25;22.20;89.70
42885;DHT22;28534;48.100;11.584;2024-02-28T02:58:26;22.40;89.90
42885;DHT22;28534;48.100;11.584;2024-02-28T02:59:26;22.40;89.90
42885;DHT22;28534;48.100;11.584;2024-02-28T03:00:28;22.50;89.80
42885;DHT22;28534;48.100;11.584;2024-02-28T03:01:28;22.30;89.70
42885;DHT22;28534;48.100;11.584;2024-02-28T03:02:30;22.50;89.50
42885;DHT22;28534;48.100;11.584;2024-02-28T03:03:31;22.40;90.20
42885;DHT22;28534;48.100;11.584;2024-02-28T03:04:33;22.40;89.60
42885;DHT22;28534;48.100;11.584;2024-02-28T03:05:33;22.40;89.20
42885;DHT22;28534;48.100;11.584;2024-02-28T03:06:35;22.40;89.60
42885;DHT22;28534;48.100;11.584;2024-02-28T03:07:35;22.40;89.50
42885;DHT22;28534;48.100;11.584;2024-02-28T03:08:38;22.50;89.50
42885;DHT22;28534;48.100;11.584;2024-02-28T03:09:39;22.50;89.40
42885;DHT22;28534;48.100;11.584;2024-02-28T03:10:41;22.30;89.40
42885;DHT22;28534;48.100;11.584;2024-02-28T03:11:42;22.20;89.50
42885;DHT22;28534;48.100;11.584;2024-02-28T03:12:43;22.30;89.90
42885;DHT22;28534;48.100;11.584;2024-02-28T03:13:44;22.30;90.00
42885;DHT22;28534;48.100;11.584;2024-02-28T03:14:44;22.10;89.70
42885;DHT22;28534;48.100;11.584;2024-02-28T03:15:46;22.20;89.80
42885;DHT22;28534;48.100;11.584;2024-02-28T03:16:46;22.30;89.70
42885;DHT22;28534;48.100;11.584;2024-02-28T03:17:48;22.30;89.60
42885;DHT22;28534;48.100;11.584;2024-02-28T03:18:49;22.40;89.60
42885;DHT22;28534;48.100;11.584;2024-02-28T03:19:51;22.50;89.30
42885;DHT22;28534;48.100;11.584;2024-02-28T03:20:51;22.40;89.40
42885;DHT22;28534;48.100;11.584;2024-02-28T03:21:53;22.40;89.30
42885;DHT22;28534;48.100;11.584;2024-02-28T03:22:53;22.40;89.50
42885;DHT22;28534;48.100;11.584;2024-02-28T03:23:56;22.40;89.40
42885;DHT22;28534;48.100;11.584;2024-02-28T03:24:57;22.50;89.50
42885;DHT22;28534;48.100;11.584;2024-02-28T03:25:59;22.40;89.30
42885;DHT22;28534;48.100;11.584;2024-02-28T03:26:59;22.40;89.40
42885;DHT22;28534;48.100;11.584;2024-02-28T03:28:01;22.50;89.40
42885;DHT22;28534;48.100;11.584;2024-02-28T03:29:01;22.40;89.30
42885;DHT22;28534;48.100;11.584;2024-02-28T03:30:03;22.30;89.60
42885;DHT22;28534;48.100;11.584;2024-02-28T03:31:04;22.20;88.30
42885;DHT22;28534;48.100;11.584;2024-02-28T03:32:06;22.40;89.60
42885;DHT22;28534;48.100;11.584;2024-02-28T03:33:07;22.30;88.70
42885;DHT22;28534;48.100;11.584;2024-02-28T03:34:08;22.50;89.40
42885;DHT22;28534;48.100;11.584;2024-02-28T03:35:10;22.40;89.00
42885;DHT22;28534;48.100;11.584;2024-02-28T03:36:10;22.50;89.00
42885;DHT22;28534;48.100;11.584;2024-02-28T03:37:12;22.40;89.00
42885;DHT22;28534;48.100;11.584;2024-02-28T03:38:13;22.30;88.80
42885;DHT22;28534;48.100;11.584;2024-02-28T03:39:16;22.40;89.10
42885;DHT22;28534;48.100;11.584;2024-02-28T03:40:16;22.30;89.40
42885;DHT22;28534;48.100;11.584;2024-02-28T03:41:17;22.20;89.40
42885;DHT22;28534;48.100;11.584;2024-02-28T03:42:19;22.30;89.60
42885;DHT22;28534;48.100;11.584;2024-02-28T03:43:19;22.40;89.30
42885;DHT22;28534;48.100;11.584;2024-02-28T03:44:21;22.40;89.60
42885;DHT22;28534;48.100;11.584;2024-02-28T03:45:22;21.70;89.10
42885;DHT22;28534;48.100;11.584;2024-02-28T03:46:24;22.40;89.40
42885;DHT22;28534;48.100;11.584;2024-02-28T03:47:24;22.30;89.30
42885;DHT22;28534;48.100;11.584;2024-02-28T03:48:26;22.30;89.70
42885;DHT22;28534;48.100;11.584;2024-02-28T03:49:27;22.30;89.40
42885;DHT22;28534;48.100;11.584;2024-02-28T03:50:29;22.40;89.60
42885;DHT22;28534;48.100;11.584;2024-02-28T03:51:29;22.40;89.40
42885;DHT22;28534;48.100;11.584;2024-02-28T03:52:31;22.40;89.60
42885;DHT22;28534;48.100;11.584;2024-02-28T03:53:31;22.40;89.40
42885;DHT22;28534;48.100;11.584;2024-02-28T03:54:34;22.30;89.40
42885;DHT22;28534;48.100;11.584;2024-02-28T03:55:35;22.40;89.60
42885;DHT22;28534;48.100;11.584;2024-02-28T03:56:38;22.40;89.60
42885;DHT22;28534;48.100;11.584;2024-02-28T03:57:38;22.30;89.00
42885;DHT22;28534;48.100;11.584;2024-02-28T03:58:40;22.50;89.10
42885;DHT22;28534;48.100;11.584;2024-02-28T03:59:41;22.50;89.50
42885;DHT22;28534;48.100;11.584;2024-02-28T04:00:42;22.20;89.30
42885;DHT22;28534;48.100;11.584;2024-02-28T04:01:44;22.30;89.40
42885;DHT22;28534;48.100;11.584;2024-02-28T04:02:45;22.50;89.60
42885;DHT22;28534;48.100;11.584;2024-02-28T04:03:47;22.50;89.50
42885;DHT22;28534;48.100;11.584;2024-02-28T04:04:47;22.60;89.20
42885;DHT22;28534;48.100;11.584;2024-02-28T04:05:49;22.30;89.30
42885;DHT22;28534;48.100;11.584;2024-02-28T04:06:49;22.40;89.30
42885;DHT22;28534;48.100;11.584;2024-02-28T04:07:51;22.30;89.30
42885;DHT22;28534;48.100;11.584;2024-02-28T04:08:52;22.30;89.40
42885;DHT22;28534;48.100;11.584;2024-02-28T04:09:54;22.30;89.50
42885;DHT22;28534;48.100;11.584;2024-02-28T04:10:55;22.30;89.60
42885;DHT22;28534;48.100;11.584;2024-02-28T04:11:56;22.30;89.70
42885;DHT22;28534;48.100;11.584;2024-02-28T04:12:57;22.20;89.90
42885;DHT22;28534;48.100;11.584;2024-02-28T04:13:58;22.40;89.90
42885;DHT22;28534;48.100;11.584;2024-02-28T04:14:58;22.20;89.90
42885;DHT22;28534;48.100;11.584;2024-02-28T04:16:01;22.20;89.90
42885;DHT22;28534;48.100;11.584;2024-02-28T04:17:03;22.10;89.70
42885;DHT22;28534;48.100;11.584;2024-02-28T04:18:04;22.40;90.00
42885;DHT22;28534;48.100;11.584;2024-02-28T04:19:05;22.20;89.40
42885;DHT22;28534;48.100;11.584;2024-02-28T04:20:07;22.20;89.30
42885;DHT22;28534;48.100;11.584;2024-02-28T04:21:09;22.20;87.50
42885;DHT22;28534;48.100;11.584;2024-02-28T04:22:10;22.50;89.10
42885;DHT22;28534;48.100;11.584;2024-02-28T04:23:11;22.40;89.20
42885;DHT22;28534;48.100;11.584;2024-02-28T04:24:12;22.50;89.40
42885;DHT22;28534;48.100;11.584;2024-02-28T04:25:14;22.40;89.40
42885;DHT22;28534;48.100;11.584;2024-02-28T04:26:16;22.50;89.80
42885;DHT22;28534;48.100;11.584;2024-02-28T04:27:17;22.40;89.50
42885;DHT22;28534;48.100;11.584;2024-02-28T04:28:18;22.50;89.30
42885;DHT22;28534;48.100;11.584;2024-02-28T04:29:19;22.50;89.40
42885;DHT22;28534;48.100;11.584;2024-02-28T04:30:20;22.40;89.20
42885;DHT22;28534;48.100;11.584;2024-02-28T04:31:21;22.40;89.20
42885;DHT22;28534;48.100;11.584;2024-02-28T04:32:23;22.40;89.00
42885;DHT22;28534;48.100;11.584;2024-02-28T04:33:23;22.40;89.00
42885;DHT22;28534;48.100;11.584;2024-02-28T04:34:25;22.60;89.20
42885;DHT22;28534;48.100;11.584;2024-02-28T04:35:25;22.20;88.60
42885;DHT22;28534;48.100;11.584;2024-02-28T04:36:27;22.50;88.80
42885;DHT22;28534;48.100;11.584;2024-02-28T04:37:28;22.50;88.70
42885;DHT22;28534;48.100;11.584;2024-02-28T04:38:29;22.50;88.60
42885;DHT22;28534;48.100;11.584;2024-02-28T04:39:31;22.50;88.50
42885;DHT22;28534;48.100;11.584;2024-02-28T04:40:32;22.60;88.70
42885;DHT22;28534;48.100;11.584;2024-02-28T04:41:33;22.70;88.70
42885;DHT22;28534;48.100;11.584;2024-02-28T04:42:35;22.70;88.50
42885;DHT22;28534;48.100;11.584;2024-02-28T04:43:36;22.70;88.10
42885;DHT22;28534;48.100;11.584;2024-02-28T04:44:37;22.70;88.20
42885;DHT22;28534;48.100;11.584;2024-02-28T04:45:38;22.70;88.40
42885;DHT22;28534;48.100;11.584;2024-02-28T04:46:40;22.80;88.30
42885;DHT22;28534;48.100;11.584;2024-02-28T04:47:40;22.80;88.00
42885;DHT22;28534;48.100;11.584;2024-02-28T04:48:42;22.80;88.20
42885;DHT22;28534;48.100;11.584;2024-02-28T04:49:42;22.80;88.20
42885;DHT22;28534;48.100;11.584;2024-02-28T04:50:44;22.70;87.80
42885;DHT22;28534;48.100;11.584;2024-02-28T04:51:45;22.70;87.90
42885;DHT22;28534;48.100;11.584;2024-02-28T04:52:46;22.70;87.60
42885;DHT22;28534;48.100;11.584;2024-02-28T04:53:47;22.70;87.80
42885;DHT22;28534;48.100;11.584;2024-02-28T04:54:48;22.90;87.90
42885;DHT22;28534;48.100;11.584;2024-02-28T04:55:50;22.70;87.80
42885;DHT22;28534;48.100;11.584;2024-02-28T04:56:52;22.90;88.00
42885;DHT22;28534;48.100;11.584;2024-02-28T04:57:52;22.90;87.60
42885;DHT22;28534;48.100;11.584;2024-02-28T04:58:54;22.90;87.80
42885;DHT22;28534;48.100;11.584;2024-02-28T04:59:55;23.00;87.60
42885;DHT22;28534;48.100;11.584;2024-02-28T05:00:56;22.90;87.50
42885;DHT22;28534;48.100;11.584;2024-02-28T05:01:57;22.80;87.50
42885;DHT22;28534;48.100;11.584;2024-02-28T05:02:58;22.90;87.30
42885;DHT22;28534;48.100;11.584;2024-02-28T05:03:59;23.00;87.30
42885;DHT22;28534;48.100;11.584;2024-02-28T05:05:01;23.10;87.30
42885;DHT22;28534;48.100;11.584;2024-02-28T05:06:01;23.10;86.80
42885;DHT22;28534;48.100;11.584;2024-02-28T05:07:03;23.10;86.50
42885;DHT22;28534;48.100;11.584;2024-02-28T05:08:04;23.10;86.40
42885;DHT22;28534;48.100;11.584;2024-02-28T05:09:06;23.10;86.50
42885;DHT22;28534;48.100;11.584;2024-02-28T05:10:07;23.10;86.70
42885;DHT22;28534;48.100;11.584;2024-02-28T05:11:10;23.10;85.90
42885;DHT22;28534;48.100;11.584;2024-02-28T05:12:11;23.20;86.80
42885;DHT22;28534;48.100;11.584;2024-02-28T05:13:12;23.40;86.70
42885;DHT22;28534;48.100;11.584;2024-02-28T05:14:13;23.50;86.60
42885;DHT22;28534;48.100;11.584;2024-02-28T05:15:14;23.30;86.40
42885;DHT22;28534;48.100;11.584;2024-02-28T05:16:17;23.30;85.20
42885;DHT22;28534;48.100;11.584;2024-02-28T05:17:18;23.30;85.70
42885;DHT22;28534;48.100;11.584;2024-02-28T05:18:19;23.50;85.80
42885;DHT22;28534;48.100;11.584;2024-02-28T05:19:20;23.30;85.80
42885;DHT22;28534;48.100;11.584;2024-02-28T05:20:21;23.50;85.50
42885;DHT22;28534;48.100;11.584;2024-02-28T05:21:22;23.60;85.90
42885;DHT22;28534;48.100;11.584;2024-02-28T05:22:23;23.50;85.60
42885;DHT22;28534;48.100;11.584;2024-02-28T05:23:24;23.60;85.80
42885;DHT22;28534;48.100;11.584;2024-02-28T05:24:26;23.50;86.00
42885;DHT22;28534;48.100;11.584;2024-02-28T05:25:26;24.30;86.40
42885;DHT22;28534;48.100;11.584;2024-02-28T05:26:28;23.50;86.00
42885;DHT22;28534;48.100;11.584;2024-02-28T05:27:31;23.40;86.00
42885;DHT22;28534;48.100;11.584;2024-02-28T05:28:32;23.50;86.10
42885;DHT22;28534;48.100;11.584;2024-02-28T05:29:34;23.50;85.50
42885;DHT22;28534;48.100;11.584;2024-02-28T05:30:35;23.50;85.80
42885;DHT22;28534;48.100;11.584;2024-02-28T05:31:37;23.60;85.70
42885;DHT22;28534;48.100;11.584;2024-02-28T05:32:38;23.40;85.70
42885;DHT22;28534;48.100;11.584;2024-02-28T05:33:40;23.40;85.40
42885;DHT22;28534;48.100;11.584;2024-02-28T05:34:41;23.60;85.90
42885;DHT22;28534;48.100;11.584;2024-02-28T05:35:42;23.40;85.50
42885;DHT22;28534;48.100;11.584;2024-02-28T05:36:43;23.40;85.50
42885;DHT22;28534;48.100;11.584;2024-02-28T05:37:44;23.60;86.10
42885;DHT22;28534;48.100;11.584;2024-02-28T05:38:47;23.50;85.60
42885;DHT22;28534;48.100;11.584;2024-02-28T05:39:47;23.50;85.50
42885;DHT22;28534;48.100;11.584;2024-02-28T05:40:49;23.50;85.50
42885;DHT22;28534;48.100;11.584;2024-02-28T05:41:51;23.50;85.90
42885;DHT22;28534;48.100;11.584;2024-02-28T05:42:52;23.50;85.90
42885;DHT22;28534;48.100;11.584;2024-02-28T05:43:53;23.50;85.60
42885;DHT22;28534;48.100;11.584;2024-02-28T05:44:55;23.60;85.40
42885;DHT22;28534;48.100;11.584;2024-02-28T05:45:55;23.50;85.60
42885;DHT22;28534;48.100;11.584;2024-02-28T05:46:57;23.50;85.30
42885;DHT22;28534;48.100;11.584;2024-02-28T05:47:57;23.70;85.50
42885;DHT22;28534;48.100;11.584;2024-02-28T05:48:59;23.70;85.30
42885;DHT22;28534;48.100;11.584;2024-02-28T05:49:59;23.60;85.50
42885;DHT22;28534;48.100;11.584;2024-02-28T05:51:01;23.70;85.50
42885;DHT22;28534;48.100;11.584;2024-02-28T05:52:02;23.50;85.60
42885;DHT22;28534;48.100;11.584;2024-02-28T05:53:04;23.60;86.00
42885;DHT22;28534;48.100;11.584;2024-02-28T05:54:04;23.60;85.50
42885;DHT22;28534;48.100;11.584;2024-02-28T05:55:06;23.50;85.30
42885;DHT22;28534;48.100;11.584;2024-02-28T05:56:07;23.60;84.90
42885;DHT22;28534;48.100;11.584;2024-02-28T05:57:14;23.80;85.50
42885;DHT22;28534;48.100;11.584;2024-02-28T05:58:16;23.70;85.50
42885;DHT22;28534;48.100;11.584;2024-02-28T05:59:17;23.60;85.50
42885;DHT22;28534;48.100;11.584;2024-02-28T06:00:18;23.70;85.70
42885;DHT22;28534;48.100;11.584;2024-02-28T06:01:19;23.60;84.90
42885;DHT22;28534;48.100;11.584;2024-02-28T06:02:20;23.60;85.40
42885;DHT22;28534;48.100;11.584;2024-02-28T06:03:21;23.60;85.20
42885;DHT22;28534;48.100;11.584;2024-02-28T06:04:22;23.50;85.20
42885;DHT22;28534;48.100;11.584;2024-02-28T06:05:23;23.70;85.50
42885;DHT22;28534;48.100;11.584;2024-02-28T06:06:24;23.70;85.80
42885;DHT22;28534;48.100;11.584;2024-02-28T06:07:26;23.60;86.90
42885;DHT22;28534;48.100;11.584;2024-02-28T06:08:26;23.50;85.60
42885;DHT22;28534;48.100;11.584;2024-02-28T06:09:28;23.70;86.40
42885;DHT22;28534;48.100;11.584;2024-02-28T06:10:29;23.50;86.00
42885;DHT22;28534;48.100;11.584;2024-02-28T06:11:30;23.70;86.10
42885;DHT22;28534;48.100;11.584;2024-02-28T06:12:32;23.70;86.20
42885;DHT22;28534;48.100;11.584;2024-02-28T06:13:34;23.60;86.00
42885;DHT22;28534;48.100;11.584;2024-02-28T06:14:34;23.60;85.80
42885;DHT22;28534;48.100;11.584;2024-02-28T06:15:36;23.60;85.80
42885;DHT22;28534;48.100;11.584;2024-02-28T06:16:36;23.70;85.90
42885;DHT22;28534;48.100;11.584;2024-02-28T06:17:38;23.60;85.50
42885;DHT22;28534;48.100;11.584;2024-02-28T06:18:39;23.70;86.10
42885;DHT22;28534;48.100;11.584;2024-02-28T06:19:41;23.70;85.90
42885;DHT22;28534;48.100;11.584;2024-02-28T06:20:41;23.80;85.90